sensor_id;sensor_type;location;lat;lon;timestamp;P1;durP1;ratioP1;P2;durP2;ratioP2
44137;SDS011;29800;55.942;37.314;2022-12-24T00:00:16;5.97;;;3.90;;
44137;SDS011;29800;55.942;37.314;2022-12-24T00:02:42;6.40;;;4.30;;
44137;SDS011;29800;55.942;37.314;2022-12-24T00:05:08;6.72;;;4.70;;
44137;SDS011;29800;55.942;37.314;2022-12-24T00:07:35;6.30;;;4.30;;
44137;SDS011;29800;55.942;37.314;2022-12-24T00:10:01;7.75;;;5.18;;
44137;SDS011;29800;55.942;37.314;2022-12-24T00:12:28;8.50;;;5.78;;
44137;SDS011;29800;55.942;37.314;2022-12-24T00:14:54;7.93;;;4.72;;
44137;SDS011;29800;55.942;37.314;2022-12-24T00:17:21;7.72;;;5.30;;
44137;SDS011;29800;55.942;37.314;2022-12-24T00:19:46;7.22;;;4.90;;
44137;SDS011;29800;55.942;37.314;2022-12-24T00:22:13;8.02;;;4.53;;
44137;SDS011;29800;55.942;37.314;2022-12-24T00:24:39;7.22;;;4.50;;
44137;SDS011;29800;55.942;37.314;2022-12-24T00:27:05;8.10;;;5.07;;
44137;SDS011;29800;55.942;37.314;2022-12-24T00:29:31;6.75;;;4.50;;
44137;SDS011;29800;55.942;37.314;2022-12-24T00:31:57;6.72;;;4.50;;
44137;SDS011;29800;55.942;37.314;2022-12-24T00:34:24;6.72;;;4.63;;
44137;SDS011;29800;55.942;37.314;2022-12-24T00:36:50;6.43;;;4.88;;
44137;SDS011;29800;55.942;37.314;2022-12-24T00:39:17;6.45;;;4.47;;
44137;SDS011;29800;55.942;37.314;2022-12-24T00:41:43;6.72;;;4.72;;
44137;SDS011;29800;55.942;37.314;2022-12-24T00:44:09;7.25;;;4.88;;
44137;SDS011;29800;55.942;37.314;2022-12-24T00:46:37;7.40;;;5.00;;
44137;SDS011;29800;55.942;37.314;2022-12-24T00:49:04;7.63;;;5.38;;
44137;SDS011;29800;55.942;37.314;2022-12-24T00:51:32;9.18;;;4.72;;
44137;SDS011;29800;55.942;37.314;2022-12-24T00:53:59;6.78;;;4.65;;
44137;SDS011;29800;55.942;37.314;2022-12-24T00:56:25;8.93;;;4.78;;
44137;SDS011;29800;55.942;37.314;2022-12-24T00:58:51;7.68;;;5.22;;
44137;SDS011;29800;55.942;37.314;2022-12-24T01:01:18;7.38;;;4.90;;
44137;SDS011;29800;55.942;37.314;2022-12-24T01:03:45;7.45;;;5.00;;
44137;SDS011;29800;55.942;37.314;2022-12-24T01:06:12;7.13;;;5.05;;
44137;SDS011;29800;55.942;37.314;2022-12-24T01:08:40;8.20;;;5.45;;
44137;SDS011;29800;55.942;37.314;2022-12-24T01:11:07;9.07;;;5.80;;
44137;SDS011;29800;55.942;37.314;2022-12-24T01:13:34;8.68;;;6.20;;
44137;SDS011;29800;55.942;37.314;2022-12-24T01:16:02;9.30;;;6.43;;
44137;SDS011;29800;55.942;37.314;2022-12-24T01:18:29;9.65;;;6.53;;
44137;SDS011;29800;55.942;37.314;2022-12-24T01:20:56;10.90;;;7.10;;
44137;SDS011;29800;55.942;37.314;2022-12-24T01:23:24;11.55;;;7.70;;
44137;SDS011;29800;55.942;37.314;2022-12-24T01:25:50;12.50;;;8.48;;
44137;SDS011;29800;55.942;37.314;2022-12-24T01:28:17;14.40;;;8.32;;
44137;SDS011;29800;55.942;37.314;2022-12-24T01:30:44;13.05;;;8.02;;
44137;SDS011;29800;55.942;37.314;2022-12-24T01:33:10;15.82;;;8.43;;
44137;SDS011;29800;55.942;37.314;2022-12-24T01:35:40;13.27;;;8.10;;
44137;SDS011;29800;55.942;37.314;2022-12-24T01:38:07;12.35;;;8.15;;
44137;SDS011;29800;55.942;37.314;2022-12-24T01:40:36;14.27;;;9.10;;
44137;SDS011;29800;55.942;37.314;2022-12-24T01:45:49;14.52;;;8.23;;
44137;SDS011;29800;55.942;37.314;2022-12-24T01:53:43;14.48;;;9.18;;
44137;SDS011;29800;55.942;37.314;2022-12-24T01:56:12;14.98;;;9.20;;
44137;SDS011;29800;55.942;37.314;2022-12-24T01:58:39;18.70;;;9.93;;
44137;SDS011;29800;55.942;37.314;2022-12-24T02:01:09;17.92;;;10.55;;
44137;SDS011;29800;55.942;37.314;2022-12-24T02:03:35;17.55;;;10.07;;
44137;SDS011;29800;55.942;37.314;2022-12-24T02:06:02;17.95;;;9.43;;
44137;SDS011;29800;55.942;37.314;2022-12-24T02:08:29;15.80;;;9.40;;
44137;SDS011;29800;55.942;37.314;2022-12-24T02:11:11;15.23;;;9.63;;
44137;SDS011;29800;55.942;37.314;2022-12-24T02:13:40;15.52;;;9.30;;
44137;SDS011;29800;55.942;37.314;2022-12-24T02:18:59;16.80;;;9.30;;
44137;SDS011;29800;55.942;37.314;2022-12-24T02:24:21;16.95;;;10.02;;
44137;SDS011;29800;55.942;37.314;2022-12-24T02:30:04;16.15;;;10.10;;
44137;SDS011;29800;55.942;37.314;2022-12-24T02:37:46;16.00;;;10.18;;
44137;SDS011;29800;55.942;37.314;2022-12-24T02:40:28;15.80;;;9.60;;
44137;SDS011;29800;55.942;37.314;2022-12-24T02:43:02;16.75;;;9.90;;
44137;SDS011;29800;55.942;37.314;2022-12-24T02:45:34;19.85;;;10.48;;
44137;SDS011;29800;55.942;37.314;2022-12-24T02:48:00;16.13;;;10.23;;
44137;SDS011;29800;55.942;37.314;2022-12-24T02:50:27;19.70;;;10.43;;
44137;SDS011;29800;55.942;37.314;2022-12-24T02:52:53;19.75;;;10.95;;
44137;SDS011;29800;55.942;37.314;2022-12-24T03:00:26;16.75;;;10.43;;
44137;SDS011;29800;55.942;37.314;2022-12-24T03:08:13;15.68;;;9.88;;
44137;SDS011;29800;55.942;37.314;2022-12-24T03:11:07;19.65;;;11.05;;
44137;SDS011;29800;55.942;37.314;2022-12-24T03:13:35;19.20;;;10.65;;
44137;SDS011;29800;55.942;37.314;2022-12-24T03:16:09;18.58;;;11.05;;
44137;SDS011;29800;55.942;37.314;2022-12-24T03:18:39;16.02;;;9.68;;
44137;SDS011;29800;55.942;37.314;2022-12-24T03:21:10;19.15;;;11.40;;
44137;SDS011;29800;55.942;37.314;2022-12-24T03:23:48;19.73;;;11.90;;
44137;SDS011;29800;55.942;37.314;2022-12-24T03:26:15;18.75;;;10.82;;
44137;SDS011;29800;55.942;37.314;2022-12-24T03:28:43;19.75;;;11.40;;
44137;SDS011;29800;55.942;37.314;2022-12-24T03:31:10;20.98;;;11.90;;
44137;SDS011;29800;55.942;37.314;2022-12-24T03:33:38;21.88;;;12.60;;
44137;SDS011;29800;55.942;37.314;2022-12-24T03:36:04;19.38;;;11.55;;
44137;SDS011;29800;55.942;37.314;2022-12-24T03:38:31;23.75;;;12.60;;
44137;SDS011;29800;55.942;37.314;2022-12-24T03:40:58;20.17;;;11.25;;
44137;SDS011;29800;55.942;37.314;2022-12-24T03:43:24;22.85;;;12.73;;
44137;SDS011;29800;55.942;37.314;2022-12-24T03:45:50;22.60;;;12.45;;
44137;SDS011;29800;55.942;37.314;2022-12-24T03:48:16;21.33;;;12.18;;
44137;SDS011;29800;55.942;37.314;2022-12-24T03:50:42;23.05;;;12.93;;
44137;SDS011;29800;55.942;37.314;2022-12-24T03:53:08;21.85;;;12.25;;
44137;SDS011;29800;55.942;37.314;2022-12-24T03:55:34;21.55;;;11.45;;
44137;SDS011;29800;55.942;37.314;2022-12-24T03:58:00;21.33;;;12.35;;
44137;SDS011;29800;55.942;37.314;2022-12-24T04:00:26;20.95;;;11.23;;
44137;SDS011;29800;55.942;37.314;2022-12-24T04:02:52;20.10;;;11.60;;
44137;SDS011;29800;55.942;37.314;2022-12-24T04:05:19;22.67;;;12.80;;
44137;SDS011;29800;55.942;37.314;2022-12-24T04:07:45;25.00;;;14.82;;
44137;SDS011;29800;55.942;37.314;2022-12-24T04:10:12;19.30;;;12.15;;
44137;SDS011;29800;55.942;37.314;2022-12-24T04:12:39;19.42;;;11.15;;
44137;SDS011;29800;55.942;37.314;2022-12-24T04:15:05;19.35;;;10.85;;
44137;SDS011;29800;55.942;37.314;2022-12-24T04:17:32;19.75;;;11.40;;
44137;SDS011;29800;55.942;37.314;2022-12-24T04:19:58;24.98;;;13.43;;
44137;SDS011;29800;55.942;37.314;2022-12-24T04:22:24;20.27;;;11.98;;
44137;SDS011;29800;55.942;37.314;2022-12-24T04:24:51;19.17;;;11.40;;
44137;SDS011;29800;55.942;37.314;2022-12-24T04:27:17;20.13;;;11.82;;
44137;SDS011;29800;55.942;37.314;2022-12-24T04:29:43;22.20;;;11.13;;
44137;SDS011;29800;55.942;37.314;2022-12-24T04:32:09;24.67;;;11.65;;
44137;SDS011;29800;55.942;37.314;2022-12-24T04:34:35;21.73;;;11.85;;
44137;SDS011;29800;55.942;37.314;2022-12-24T04:37:02;24.92;;;12.93;;
44137;SDS011;29800;55.942;37.314;2022-12-24T04:39:28;18.27;;;10.90;;
44137;SDS011;29800;55.942;37.314;2022-12-24T04:41:54;20.42;;;11.25;;
44137;SDS011;29800;55.942;37.314;2022-12-24T04:44:20;18.00;;;10.82;;
44137;SDS011;29800;55.942;37.314;2022-12-24T04:46:46;17.58;;;10.30;;
44137;SDS011;29800;55.942;37.314;2022-12-24T04:49:12;19.98;;;10.48;;
44137;SDS011;29800;55.942;37.314;2022-12-24T04:51:38;18.85;;;11.15;;
44137;SDS011;29800;55.942;37.314;2022-12-24T04:54:04;20.25;;;11.43;;
44137;SDS011;29800;55.942;37.314;2022-12-24T04:56:30;16.02;;;9.23;;
44137;SDS011;29800;55.942;37.314;2022-12-24T04:58:58;15.32;;;9.95;;
44137;SDS011;29800;55.942;37.314;2022-12-24T05:01:26;19.05;;;10.55;;
44137;SDS011;29800;55.942;37.314;2022-12-24T05:03:54;20.15;;;11.32;;
44137;SDS011;29800;55.942;37.314;2022-12-24T05:06:22;18.63;;;11.63;;
44137;SDS011;29800;55.942;37.314;2022-12-24T05:08:52;17.30;;;10.77;;
44137;SDS011;29800;55.942;37.314;2022-12-24T05:11:22;18.52;;;11.10;;
44137;SDS011;29800;55.942;37.314;2022-12-24T05:13:48;20.02;;;11.45;;
44137;SDS011;29800;55.942;37.314;2022-12-24T05:16:16;18.98;;;11.95;;
44137;SDS011;29800;55.942;37.314;2022-12-24T05:18:42;22.10;;;13.10;;
44137;SDS011;29800;55.942;37.314;2022-12-24T05:21:12;22.10;;;12.88;;
44137;SDS011;29800;55.942;37.314;2022-12-24T05:23:41;22.45;;;12.65;;
44137;SDS011;29800;55.942;37.314;2022-12-24T05:26:31;22.40;;;12.80;;
44137;SDS011;29800;55.942;37.314;2022-12-24T05:29:09;20.45;;;12.45;;
44137;SDS011;29800;55.942;37.314;2022-12-24T05:31:39;19.98;;;12.27;;
44137;SDS011;29800;55.942;37.314;2022-12-24T05:34:07;20.92;;;11.80;;
44137;SDS011;29800;55.942;37.314;2022-12-24T05:36:34;18.77;;;11.32;;
44137;SDS011;29800;55.942;37.314;2022-12-24T05:39:00;22.67;;;11.88;;
44137;SDS011;29800;55.942;37.314;2022-12-24T05:41:26;21.58;;;12.35;;
44137;SDS011;29800;55.942;37.314;2022-12-24T05:43:52;19.73;;;10.90;;
44137;SDS011;29800;55.942;37.314;2022-12-24T05:46:19;22.48;;;11.25;;
44137;SDS011;29800;55.942;37.314;2022-12-24T05:48:47;19.77;;;11.43;;
44137;SDS011;29800;55.942;37.314;2022-12-24T05:51:14;19.75;;;11.30;;
44137;SDS011;29800;55.942;37.314;2022-12-24T05:53:47;18.33;;;10.98;;
44137;SDS011;29800;55.942;37.314;2022-12-24T05:56:17;17.85;;;10.88;;
44137;SDS011;29800;55.942;37.314;2022-12-24T05:58:46;18.80;;;10.85;;
44137;SDS011;29800;55.942;37.314;2022-12-24T06:01:13;17.25;;;11.30;;
44137;SDS011;29800;55.942;37.314;2022-12-24T06:03:39;18.05;;;10.63;;
44137;SDS011;29800;55.942;37.314;2022-12-24T06:06:07;18.05;;;11.00;;
44137;SDS011;29800;55.942;37.314;2022-12-24T06:08:38;18.85;;;10.63;;
44137;SDS011;29800;55.942;37.314;2022-12-24T06:11:06;15.48;;;9.50;;
44137;SDS011;29800;55.942;37.314;2022-12-24T06:13:35;18.05;;;10.70;;
44137;SDS011;29800;55.942;37.314;2022-12-24T06:16:02;16.92;;;10.32;;
44137;SDS011;29800;55.942;37.314;2022-12-24T06:18:30;16.67;;;10.13;;
44137;SDS011;29800;55.942;37.314;2022-12-24T06:20:58;16.60;;;10.52;;
44137;SDS011;29800;55.942;37.314;2022-12-24T06:23:25;16.50;;;10.05;;
44137;SDS011;29800;55.942;37.314;2022-12-24T06:25:54;17.48;;;10.93;;
44137;SDS011;29800;55.942;37.314;2022-12-24T06:28:21;17.67;;;10.27;;
44137;SDS011;29800;55.942;37.314;2022-12-24T06:30:49;16.45;;;10.38;;
44137;SDS011;29800;55.942;37.314;2022-12-24T06:33:15;17.65;;;9.95;;
44137;SDS011;29800;55.942;37.314;2022-12-24T06:35:43;18.48;;;11.18;;
44137;SDS011;29800;55.942;37.314;2022-12-24T06:38:10;18.23;;;11.13;;
44137;SDS011;29800;55.942;37.314;2022-12-24T06:40:40;20.85;;;11.93;;
44137;SDS011;29800;55.942;37.314;2022-12-24T06:43:08;18.80;;;11.45;;
44137;SDS011;29800;55.942;37.314;2022-12-24T06:45:34;21.50;;;12.60;;
44137;SDS011;29800;55.942;37.314;2022-12-24T06:48:00;20.45;;;12.20;;
44137;SDS011;29800;55.942;37.314;2022-12-24T06:50:26;20.42;;;11.27;;
44137;SDS011;29800;55.942;37.314;2022-12-24T06:52:53;21.92;;;12.13;;
44137;SDS011;29800;55.942;37.314;2022-12-24T06:55:19;19.92;;;12.50;;
44137;SDS011;29800;55.942;37.314;2022-12-24T06:57:45;19.83;;;11.30;;
44137;SDS011;29800;55.942;37.314;2022-12-24T07:00:12;20.30;;;12.05;;
44137;SDS011;29800;55.942;37.314;2022-12-24T07:02:42;21.40;;;12.35;;
44137;SDS011;29800;55.942;37.314;2022-12-24T07:05:10;21.15;;;10.52;;
44137;SDS011;29800;55.942;37.314;2022-12-24T07:07:37;17.38;;;11.18;;
44137;SDS011;29800;55.942;37.314;2022-12-24T07:10:05;16.90;;;10.60;;
44137;SDS011;29800;55.942;37.314;2022-12-24T07:12:32;15.90;;;10.45;;
44137;SDS011;29800;55.942;37.314;2022-12-24T07:14:58;18.38;;;10.48;;
44137;SDS011;29800;55.942;37.314;2022-12-24T07:17:24;17.88;;;10.70;;
44137;SDS011;29800;55.942;37.314;2022-12-24T07:19:50;15.20;;;9.10;;
44137;SDS011;29800;55.942;37.314;2022-12-24T07:22:16;16.17;;;10.20;;
44137;SDS011;29800;55.942;37.314;2022-12-24T07:24:42;16.65;;;9.43;;
44137;SDS011;29800;55.942;37.314;2022-12-24T07:27:08;14.15;;;8.50;;
44137;SDS011;29800;55.942;37.314;2022-12-24T07:29:34;12.73;;;7.85;;
44137;SDS011;29800;55.942;37.314;2022-12-24T07:32:00;14.25;;;8.48;;
44137;SDS011;29800;55.942;37.314;2022-12-24T07:34:26;11.70;;;8.27;;
44137;SDS011;29800;55.942;37.314;2022-12-24T07:36:52;14.13;;;8.65;;
44137;SDS011;29800;55.942;37.314;2022-12-24T07:39:18;13.60;;;8.02;;
44137;SDS011;29800;55.942;37.314;2022-12-24T07:41:44;12.85;;;7.40;;
44137;SDS011;29800;55.942;37.314;2022-12-24T07:44:12;12.80;;;7.93;;
44137;SDS011;29800;55.942;37.314;2022-12-24T07:46:39;10.77;;;7.03;;
44137;SDS011;29800;55.942;37.314;2022-12-24T07:49:06;11.88;;;7.38;;
44137;SDS011;29800;55.942;37.314;2022-12-24T07:51:32;11.10;;;7.45;;
44137;SDS011;29800;55.942;37.314;2022-12-24T07:53:58;11.20;;;6.75;;
44137;SDS011;29800;55.942;37.314;2022-12-24T07:56:24;10.27;;;6.78;;
44137;SDS011;29800;55.942;37.314;2022-12-24T07:58:50;10.27;;;6.80;;
44137;SDS011;29800;55.942;37.314;2022-12-24T08:01:17;9.60;;;6.85;;
44137;SDS011;29800;55.942;37.314;2022-12-24T08:03:43;8.85;;;6.47;;
44137;SDS011;29800;55.942;37.314;2022-12-24T08:06:10;10.45;;;6.82;;
44137;SDS011;29800;55.942;37.314;2022-12-24T08:08:36;9.43;;;5.90;;
44137;SDS011;29800;55.942;37.314;2022-12-24T08:11:03;9.57;;;6.43;;
44137;SDS011;29800;55.942;37.314;2022-12-24T08:13:31;11.02;;;6.60;;
44137;SDS011;29800;55.942;37.314;2022-12-24T08:15:58;10.35;;;6.40;;
44137;SDS011;29800;55.942;37.314;2022-12-24T08:18:24;9.23;;;6.55;;
44137;SDS011;29800;55.942;37.314;2022-12-24T08:20:51;12.30;;;7.05;;
44137;SDS011;29800;55.942;37.314;2022-12-24T08:23:17;10.63;;;7.20;;
44137;SDS011;29800;55.942;37.314;2022-12-24T08:25:44;12.35;;;7.13;;
44137;SDS011;29800;55.942;37.314;2022-12-24T08:28:12;13.73;;;8.10;;
44137;SDS011;29800;55.942;37.314;2022-12-24T08:30:39;12.35;;;8.10;;
44137;SDS011;29800;55.942;37.314;2022-12-24T08:33:06;12.38;;;7.50;;
44137;SDS011;29800;55.942;37.314;2022-12-24T08:35:32;11.88;;;7.82;;
44137;SDS011;29800;55.942;37.314;2022-12-24T08:37:59;13.35;;;7.20;;
44137;SDS011;29800;55.942;37.314;2022-12-24T08:40:24;10.32;;;6.60;;
44137;SDS011;29800;55.942;37.314;2022-12-24T08:42:51;10.57;;;6.68;;
44137;SDS011;29800;55.942;37.314;2022-12-24T08:45:17;11.98;;;6.63;;
44137;SDS011;29800;55.942;37.314;2022-12-24T08:47:43;11.23;;;6.65;;
44137;SDS011;29800;55.942;37.314;2022-12-24T08:50:10;8.45;;;6.13;;
44137;SDS011;29800;55.942;37.314;2022-12-24T08:52:37;10.57;;;6.50;;
44137;SDS011;29800;55.942;37.314;2022-12-24T08:55:03;8.20;;;6.10;;
44137;SDS011;29800;55.942;37.314;2022-12-24T08:57:29;8.85;;;6.43;;
44137;SDS011;29800;55.942;37.314;2022-12-24T08:59:56;9.52;;;6.20;;
44137;SDS011;29800;55.942;37.314;2022-12-24T09:02:22;8.18;;;5.63;;
44137;SDS011;29800;55.942;37.314;2022-12-24T09:04:48;8.52;;;6.15;;
44137;SDS011;29800;55.942;37.314;2022-12-24T09:07:14;9.57;;;6.45;;
44137;SDS011;29800;55.942;37.314;2022-12-24T09:09:40;9.18;;;6.00;;
44137;SDS011;29800;55.942;37.314;2022-12-24T09:12:06;9.63;;;6.55;;
44137;SDS011;29800;55.942;37.314;2022-12-24T09:14:32;9.98;;;6.88;;
44137;SDS011;29800;55.942;37.314;2022-12-24T09:16:59;11.73;;;6.72;;
44137;SDS011;29800;55.942;37.314;2022-12-24T09:19:26;9.32;;;6.55;;
44137;SDS011;29800;55.942;37.314;2022-12-24T09:21:52;9.18;;;6.47;;
44137;SDS011;29800;55.942;37.314;2022-12-24T09:24:18;8.75;;;6.07;;
44137;SDS011;29800;55.942;37.314;2022-12-24T09:26:44;8.60;;;6.20;;
44137;SDS011;29800;55.942;37.314;2022-12-24T09:29:14;8.75;;;6.15;;
44137;SDS011;29800;55.942;37.314;2022-12-24T09:31:41;13.63;;;6.50;;
44137;SDS011;29800;55.942;37.314;2022-12-24T09:34:07;7.22;;;5.30;;
44137;SDS011;29800;55.942;37.314;2022-12-24T09:36:33;7.60;;;5.18;;
44137;SDS011;29800;55.942;37.314;2022-12-24T09:39:00;6.68;;;4.72;;
44137;SDS011;29800;55.942;37.314;2022-12-24T09:44:21;7.78;;;5.22;;
44137;SDS011;29800;55.942;37.314;2022-12-24T09:46:55;7.55;;;5.15;;
44137;SDS011;29800;55.942;37.314;2022-12-24T09:49:25;8.63;;;5.43;;
44137;SDS011;29800;55.942;37.314;2022-12-24T09:52:05;9.52;;;5.40;;
44137;SDS011;29800;55.942;37.314;2022-12-24T09:54:36;7.20;;;5.03;;
44137;SDS011;29800;55.942;37.314;2022-12-24T09:57:11;6.68;;;4.72;;
44137;SDS011;29800;55.942;37.314;2022-12-24T09:59:46;8.02;;;5.00;;
44137;SDS011;29800;55.942;37.314;2022-12-24T10:02:14;8.00;;;6.00;;
44137;SDS011;29800;55.942;37.314;2022-12-24T10:04:42;6.68;;;4.97;;
44137;SDS011;29800;55.942;37.314;2022-12-24T10:10:21;7.07;;;4.88;;
44137;SDS011;29800;55.942;37.314;2022-12-24T10:15:42;8.55;;;5.22;;
44137;SDS011;29800;55.942;37.314;2022-12-24T10:21:15;10.05;;;5.15;;
44137;SDS011;29800;55.942;37.314;2022-12-24T10:23:50;6.43;;;4.40;;
44137;SDS011;29800;55.942;37.314;2022-12-24T10:29:05;6.15;;;4.28;;
44137;SDS011;29800;55.942;37.314;2022-12-24T10:31:40;6.68;;;4.57;;
44137;SDS011;29800;55.942;37.314;2022-12-24T10:34:29;6.18;;;4.65;;
44137;SDS011;29800;55.942;37.314;2022-12-24T10:37:00;6.63;;;4.47;;
44137;SDS011;29800;55.942;37.314;2022-12-24T10:39:28;5.88;;;4.65;;
44137;SDS011;29800;55.942;37.314;2022-12-24T10:41:55;5.82;;;4.18;;
44137;SDS011;29800;55.942;37.314;2022-12-24T10:44:25;6.20;;;3.88;;
44137;SDS011;29800;55.942;37.314;2022-12-24T10:46:55;5.22;;;3.67;;
44137;SDS011;29800;55.942;37.314;2022-12-24T10:49:25;5.90;;;3.70;;
44137;SDS011;29800;55.942;37.314;2022-12-24T10:52:04;5.28;;;3.65;;
44137;SDS011;29800;55.942;37.314;2022-12-24T10:54:35;4.32;;;3.00;;
44137;SDS011;29800;55.942;37.314;2022-12-24T10:57:05;4.13;;;3.20;;
44137;SDS011;29800;55.942;37.314;2022-12-24T10:59:49;5.68;;;3.78;;
44137;SDS011;29800;55.942;37.314;2022-12-24T11:02:25;6.00;;;3.63;;
44137;SDS011;29800;55.942;37.314;2022-12-24T11:04:56;4.55;;;3.22;;
44137;SDS011;29800;55.942;37.314;2022-12-24T11:07:25;5.10;;;3.75;;
44137;SDS011;29800;55.942;37.314;2022-12-24T11:09:56;4.72;;;3.20;;
44137;SDS011;29800;55.942;37.314;2022-12-24T11:12:26;4.82;;;3.10;;
44137;SDS011;29800;55.942;37.314;2022-12-24T11:17:30;4.75;;;3.42;;
44137;SDS011;29800;55.942;37.314;2022-12-24T11:19:57;4.10;;;2.97;;
44137;SDS011;29800;55.942;37.314;2022-12-24T11:22:25;4.93;;;3.20;;
44137;SDS011;29800;55.942;37.314;2022-12-24T11:24:57;4.80;;;3.38;;
44137;SDS011;29800;55.942;37.314;2022-12-24T11:27:32;4.35;;;3.35;;
44137;SDS011;29800;55.942;37.314;2022-12-24T11:32:41;4.47;;;3.00;;
44137;SDS011;29800;55.942;37.314;2022-12-24T11:35:14;6.07;;;2.90;;
44137;SDS011;29800;55.942;37.314;2022-12-24T11:37:50;4.30;;;3.00;;
44137;SDS011;29800;55.942;37.314;2022-12-24T11:40:36;5.63;;;3.42;;
44137;SDS011;29800;55.942;37.314;2022-12-24T11:43:05;5.78;;;3.50;;
44137;SDS011;29800;55.942;37.314;2022-12-24T11:45:32;7.60;;;3.80;;
44137;SDS011;29800;55.942;37.314;2022-12-24T11:47:59;5.22;;;3.20;;
44137;SDS011;29800;55.942;37.314;2022-12-24T11:55:42;7.22;;;5.65;;
44137;SDS011;29800;55.942;37.314;2022-12-24T11:58:16;7.45;;;5.03;;
44137;SDS011;29800;55.942;37.314;2022-12-24T12:01:21;6.53;;;4.70;;
44137;SDS011;29800;55.942;37.314;2022-12-24T12:03:58;6.65;;;4.65;;
44137;SDS011;29800;55.942;37.314;2022-12-24T12:06:36;6.10;;;4.05;;
44137;SDS011;29800;55.942;37.314;2022-12-24T12:09:09;6.82;;;4.13;;
44137;SDS011;29800;55.942;37.314;2022-12-24T12:14:07;4.90;;;3.20;;
44137;SDS011;29800;55.942;37.314;2022-12-24T12:19:28;7.10;;;4.65;;
44137;SDS011;29800;55.942;37.314;2022-12-24T12:21:59;8.68;;;6.05;;
44137;SDS011;29800;55.942;37.314;2022-12-24T12:24:33;12.48;;;9.32;;
44137;SDS011;29800;55.942;37.314;2022-12-24T12:29:41;10.23;;;8.27;;
44137;SDS011;29800;55.942;37.314;2022-12-24T12:35:24;4.88;;;3.70;;
44137;SDS011;29800;55.942;37.314;2022-12-24T12:37:56;10.38;;;4.07;;
44137;SDS011;29800;55.942;37.314;2022-12-24T12:43:16;6.00;;;3.13;;
44137;SDS011;29800;55.942;37.314;2022-12-24T12:45:57;4.95;;;3.45;;
44137;SDS011;29800;55.942;37.314;2022-12-24T12:48:37;4.63;;;3.30;;
44137;SDS011;29800;55.942;37.314;2022-12-24T12:51:08;6.85;;;4.60;;
44137;SDS011;29800;55.942;37.314;2022-12-24T12:56:48;5.45;;;3.60;;
44137;SDS011;29800;55.942;37.314;2022-12-24T12:59:34;5.15;;;3.28;;
44137;SDS011;29800;55.942;37.314;2022-12-24T13:20:51;7.53;;;5.18;;
44137;SDS011;29800;55.942;37.314;2022-12-24T13:23:19;5.65;;;4.50;;
44137;SDS011;29800;55.942;37.314;2022-12-24T13:25:51;7.00;;;5.15;;
44137;SDS011;29800;55.942;37.314;2022-12-24T13:36:06;6.10;;;4.63;;
44137;SDS011;29800;55.942;37.314;2022-12-24T13:38:56;5.65;;;3.92;;
44137;SDS011;29800;55.942;37.314;2022-12-24T13:54:39;5.03;;;3.83;;
44137;SDS011;29800;55.942;37.314;2022-12-24T14:00:24;7.50;;;4.40;;
44137;SDS011;29800;55.942;37.314;2022-12-24T14:08:09;7.88;;;4.35;;
44137;SDS011;29800;55.942;37.314;2022-12-24T14:11:06;6.80;;;4.00;;
44137;SDS011;29800;55.942;37.314;2022-12-24T14:24:40;5.95;;;4.05;;
44137;SDS011;29800;55.942;37.314;2022-12-24T14:27:13;10.43;;;7.38;;
44137;SDS011;29800;55.942;37.314;2022-12-24T14:29:45;10.18;;;6.20;;
44137;SDS011;29800;55.942;37.314;2022-12-24T14:32:18;9.13;;;6.82;;
44137;SDS011;29800;55.942;37.314;2022-12-24T14:34:44;13.68;;;10.23;;
44137;SDS011;29800;55.942;37.314;2022-12-24T14:37:13;18.48;;;13.48;;
44137;SDS011;29800;55.942;37.314;2022-12-24T14:39:45;16.60;;;11.95;;
44137;SDS011;29800;55.942;37.314;2022-12-24T14:45:22;26.05;;;17.95;;
44137;SDS011;29800;55.942;37.314;2022-12-24T14:53:41;13.90;;;8.88;;
44137;SDS011;29800;55.942;37.314;2022-12-24T14:56:14;15.13;;;9.40;;
44137;SDS011;29800;55.942;37.314;2022-12-24T14:58:43;28.48;;;17.52;;
44137;SDS011;29800;55.942;37.314;2022-12-24T15:01:26;10.43;;;7.40;;
44137;SDS011;29800;55.942;37.314;2022-12-24T15:06:42;10.35;;;5.20;;
44137;SDS011;29800;55.942;37.314;2022-12-24T15:09:31;7.10;;;5.13;;
44137;SDS011;29800;55.942;37.314;2022-12-24T15:11:59;5.85;;;4.00;;
44137;SDS011;29800;55.942;37.314;2022-12-24T15:14:29;7.18;;;4.72;;
44137;SDS011;29800;55.942;37.314;2022-12-24T15:17:02;6.57;;;4.38;;
44137;SDS011;29800;55.942;37.314;2022-12-24T15:19:36;7.05;;;4.03;;
44137;SDS011;29800;55.942;37.314;2022-12-24T15:22:22;7.43;;;4.85;;
44137;SDS011;29800;55.942;37.314;2022-12-24T15:24:52;7.20;;;4.90;;
44137;SDS011;29800;55.942;37.314;2022-12-24T15:27:20;7.57;;;4.72;;
44137;SDS011;29800;55.942;37.314;2022-12-24T15:29:49;5.53;;;4.05;;
44137;SDS011;29800;55.942;37.314;2022-12-24T15:32:18;4.85;;;3.78;;
44137;SDS011;29800;55.942;37.314;2022-12-24T15:34:47;7.95;;;4.57;;
44137;SDS011;29800;55.942;37.314;2022-12-24T15:37:21;5.55;;;3.78;;
44137;SDS011;29800;55.942;37.314;2022-12-24T15:42:24;6.38;;;4.20;;
44137;SDS011;29800;55.942;37.314;2022-12-24T15:44:59;6.80;;;4.30;;
44137;SDS011;29800;55.942;37.314;2022-12-24T15:47:32;5.68;;;3.80;;
44137;SDS011;29800;55.942;37.314;2022-12-24T15:50:09;4.93;;;3.70;;
44137;SDS011;29800;55.942;37.314;2022-12-24T15:52:41;6.28;;;4.15;;
44137;SDS011;29800;55.942;37.314;2022-12-24T15:58:20;7.75;;;4.03;;
44137;SDS011;29800;55.942;37.314;2022-12-24T16:01:24;5.40;;;3.83;;
44137;SDS011;29800;55.942;37.314;2022-12-24T16:06:15;6.80;;;3.88;;
44137;SDS011;29800;55.942;37.314;2022-12-24T16:08:41;5.57;;;3.95;;
44137;SDS011;29800;55.942;37.314;2022-12-24T16:11:18;5.82;;;3.70;;
44137;SDS011;29800;55.942;37.314;2022-12-24T16:16:17;8.95;;;3.75;;
44137;SDS011;29800;55.942;37.314;2022-12-24T16:18:50;5.45;;;3.38;;
44137;SDS011;29800;55.942;37.314;2022-12-24T16:21:31;5.10;;;3.13;;
44137;SDS011;29800;55.942;37.314;2022-12-24T16:26:38;3.53;;;2.20;;
44137;SDS011;29800;55.942;37.314;2022-12-24T16:29:06;2.92;;;2.17;;
44137;SDS011;29800;55.942;37.314;2022-12-24T16:31:34;4.28;;;2.38;;
44137;SDS011;29800;55.942;37.314;2022-12-24T16:34:02;2.70;;;1.60;;
44137;SDS011;29800;55.942;37.314;2022-12-24T16:36:30;4.72;;;2.53;;
44137;SDS011;29800;55.942;37.314;2022-12-24T16:38:57;3.40;;;2.20;;
44137;SDS011;29800;55.942;37.314;2022-12-24T16:41:42;2.42;;;1.73;;
44137;SDS011;29800;55.942;37.314;2022-12-24T16:44:27;3.70;;;1.92;;
44137;SDS011;29800;55.942;37.314;2022-12-24T16:46:53;3.65;;;1.95;;
44137;SDS011;29800;55.942;37.314;2022-12-24T16:49:20;2.97;;;2.05;;
44137;SDS011;29800;55.942;37.314;2022-12-24T16:51:48;4.05;;;1.90;;
44137;SDS011;29800;55.942;37.314;2022-12-24T16:54:14;2.75;;;1.80;;
44137;SDS011;29800;55.942;37.314;2022-12-24T16:56:40;3.35;;;2.10;;
44137;SDS011;29800;55.942;37.314;2022-12-24T16:59:12;3.38;;;2.30;;
44137;SDS011;29800;55.942;37.314;2022-12-24T17:01:48;6.63;;;2.33;;
44137;SDS011;29800;55.942;37.314;2022-12-24T17:04:15;3.65;;;2.25;;
44137;SDS011;29800;55.942;37.314;2022-12-24T17:06:43;3.47;;;2.35;;
44137;SDS011;29800;55.942;37.314;2022-12-24T17:09:10;3.70;;;2.35;;
44137;SDS011;29800;55.942;37.314;2022-12-24T17:11:37;3.65;;;2.60;;
44137;SDS011;29800;55.942;37.314;2022-12-24T17:14:03;3.67;;;2.38;;